sensor_id;sensor_type;location;lat;lon;timestamp;P1;durP1;ratioP1;P2;durP2;ratioP2
51384;SDS011;37478;55.682;37.462;2023-04-01T00:00:22;15.27;;;8.30;;
51384;SDS011;37478;55.682;37.462;2023-04-01T00:02:48;17.13;;;9.82;;
51384;SDS011;37478;55.682;37.462;2023-04-01T00:05:13;17.02;;;8.05;;
51384;SDS011;37478;55.682;37.462;2023-04-01T00:07:40;14.80;;;8.43;;
51384;SDS011;37478;55.682;37.462;2023-04-01T00:10:06;18.05;;;10.07;;
51384;SDS011;37478;55.682;37.462;2023-04-01T00:12:32;16.77;;;8.02;;
51384;SDS011;37478;55.682;37.462;2023-04-01T00:14:57;18.88;;;10.27;;
51384;SDS011;37478;55.682;37.462;2023-04-01T00:17:23;21.23;;;10.55;;
51384;SDS011;37478;55.682;37.462;2023-04-01T00:19:48;17.88;;;9.38;;
51384;SDS011;37478;55.682;37.462;2023-04-01T00:22:13;19.08;;;8.88;;
51384;SDS011;37478;55.682;37.462;2023-04-01T00:24:39;20.70;;;9.60;;
51384;SDS011;37478;55.682;37.462;2023-04-01T00:27:04;21.33;;;10.88;;
51384;SDS011;37478;55.682;37.462;2023-04-01T00:29:29;18.45;;;9.98;;
51384;SDS011;37478;55.682;37.462;2023-04-01T00:31:58;19.55;;;8.60;;
51384;SDS011;37478;55.682;37.462;2023-04-01T00:34:23;20.70;;;9.95;;
51384;SDS011;37478;55.682;37.462;2023-04-01T00:36:49;16.27;;;10.30;;
51384;SDS011;37478;55.682;37.462;2023-04-01T00:39:15;18.95;;;9.25;;
51384;SDS011;37478;55.682;37.462;2023-04-01T00:41:40;18.58;;;9.32;;
51384;SDS011;37478;55.682;37.462;2023-04-01T00:44:22;26.55;;;10.50;;
51384;SDS011;37478;55.682;37.462;2023-04-01T00:46:48;19.80;;;9.55;;
51384;SDS011;37478;55.682;37.462;2023-04-01T00:49:14;21.33;;;9.77;;
51384;SDS011;37478;55.682;37.462;2023-04-01T00:51:41;21.63;;;10.40;;
51384;SDS011;37478;55.682;37.462;2023-04-01T00:54:07;19.23;;;9.48;;
51384;SDS011;37478;55.682;37.462;2023-04-01T00:56:34;21.65;;;11.13;;
51384;SDS011;37478;55.682;37.462;2023-04-01T00:59:02;20.17;;;10.32;;
51384;SDS011;37478;55.682;37.462;2023-04-01T01:01:28;21.33;;;11.25;;
51384;SDS011;37478;55.682;37.462;2023-04-01T01:03:54;22.63;;;10.23;;
51384;SDS011;37478;55.682;37.462;2023-04-01T01:11:28;18.95;;;9.52;;
51384;SDS011;37478;55.682;37.462;2023-04-01T01:14:12;20.30;;;10.80;;
51384;SDS011;37478;55.682;37.462;2023-04-01T01:16:44;22.05;;;10.45;;
51384;SDS011;37478;55.682;37.462;2023-04-01T01:19:29;23.75;;;11.02;;
51384;SDS011;37478;55.682;37.462;2023-04-01T01:27:11;25.52;;;11.55;;
51384;SDS011;37478;55.682;37.462;2023-04-01T01:37:13;21.65;;;11.25;;
51384;SDS011;37478;55.682;37.462;2023-04-01T01:39:40;23.15;;;11.85;;
51384;SDS011;37478;55.682;37.462;2023-04-01T01:42:08;25.15;;;11.07;;
51384;SDS011;37478;55.682;37.462;2023-04-01T01:44:34;24.45;;;10.98;;
51384;SDS011;37478;55.682;37.462;2023-04-01T01:47:00;25.85;;;12.02;;
51384;SDS011;37478;55.682;37.462;2023-04-01T01:49:26;21.38;;;10.82;;
51384;SDS011;37478;55.682;37.462;2023-04-01T01:51:52;23.17;;;12.40;;
51384;SDS011;37478;55.682;37.462;2023-04-01T01:54:17;24.90;;;11.90;;
51384;SDS011;37478;55.682;37.462;2023-04-01T01:56:44;27.83;;;12.98;;
51384;SDS011;37478;55.682;37.462;2023-04-01T01:59:10;25.40;;;13.98;;
51384;SDS011;37478;55.682;37.462;2023-04-01T02:01:37;21.30;;;10.55;;
51384;SDS011;37478;55.682;37.462;2023-04-01T02:04:04;23.75;;;11.52;;
51384;SDS011;37478;55.682;37.462;2023-04-01T02:06:30;22.80;;;11.95;;
51384;SDS011;37478;55.682;37.462;2023-04-01T02:08:59;26.75;;;13.02;;
51384;SDS011;37478;55.682;37.462;2023-04-01T02:14:01;30.13;;;12.73;;
51384;SDS011;37478;55.682;37.462;2023-04-01T02:16:29;25.55;;;12.23;;
51384;SDS011;37478;55.682;37.462;2023-04-01T02:18:56;23.00;;;12.40;;
51384;SDS011;37478;55.682;37.462;2023-04-01T02:21:23;26.63;;;12.50;;
51384;SDS011;37478;55.682;37.462;2023-04-01T02:23:49;28.65;;;13.23;;
51384;SDS011;37478;55.682;37.462;2023-04-01T02:26:16;30.92;;;15.63;;
51384;SDS011;37478;55.682;37.462;2023-04-01T02:28:42;31.13;;;14.70;;
51384;SDS011;37478;55.682;37.462;2023-04-01T02:31:09;28.02;;;13.65;;
51384;SDS011;37478;55.682;37.462;2023-04-01T02:33:35;26.38;;;12.13;;
51384;SDS011;37478;55.682;37.462;2023-04-01T02:36:02;26.48;;;12.30;;
51384;SDS011;37478;55.682;37.462;2023-04-01T02:38:27;30.13;;;13.95;;
51384;SDS011;37478;55.682;37.462;2023-04-01T02:40:56;25.95;;;12.98;;
51384;SDS011;37478;55.682;37.462;2023-04-01T02:43:22;32.05;;;13.60;;
51384;SDS011;37478;55.682;37.462;2023-04-01T02:45:47;26.05;;;13.02;;
51384;SDS011;37478;55.682;37.462;2023-04-01T02:48:12;24.90;;;11.35;;
51384;SDS011;37478;55.682;37.462;2023-04-01T02:50:39;28.60;;;13.63;;
51384;SDS011;37478;55.682;37.462;2023-04-01T02:53:04;30.30;;;14.75;;
51384;SDS011;37478;55.682;37.462;2023-04-01T02:55:31;43.15;;;21.27;;
51384;SDS011;37478;55.682;37.462;2023-04-01T02:57:56;27.02;;;12.73;;
51384;SDS011;37478;55.682;37.462;2023-04-01T03:00:22;26.67;;;11.95;;
51384;SDS011;37478;55.682;37.462;2023-04-01T03:02:47;28.20;;;12.52;;
51384;SDS011;37478;55.682;37.462;2023-04-01T03:05:13;20.65;;;11.00;;
51384;SDS011;37478;55.682;37.462;2023-04-01T03:07:38;26.13;;;12.90;;
51384;SDS011;37478;55.682;37.462;2023-04-01T03:10:03;27.40;;;12.20;;
51384;SDS011;37478;55.682;37.462;2023-04-01T03:12:29;24.70;;;11.98;;
51384;SDS011;37478;55.682;37.462;2023-04-01T03:14:54;19.40;;;11.40;;
51384;SDS011;37478;55.682;37.462;2023-04-01T03:17:20;23.23;;;11.75;;
51384;SDS011;37478;55.682;37.462;2023-04-01T03:19:45;24.67;;;11.63;;
51384;SDS011;37478;55.682;37.462;2023-04-01T03:22:10;18.33;;;10.07;;
51384;SDS011;37478;55.682;37.462;2023-04-01T03:24:36;22.55;;;11.15;;
51384;SDS011;37478;55.682;37.462;2023-04-01T03:27:01;23.35;;;11.30;;
51384;SDS011;37478;55.682;37.462;2023-04-01T03:29:29;27.50;;;11.50;;
51384;SDS011;37478;55.682;37.462;2023-04-01T03:31:55;24.98;;;11.68;;
51384;SDS011;37478;55.682;37.462;2023-04-01T03:34:23;25.73;;;11.68;;
51384;SDS011;37478;55.682;37.462;2023-04-01T03:36:48;25.67;;;11.27;;
51384;SDS011;37478;55.682;37.462;2023-04-01T03:39:13;25.05;;;10.80;;
51384;SDS011;37478;55.682;37.462;2023-04-01T03:41:38;27.13;;;12.60;;
51384;SDS011;37478;55.682;37.462;2023-04-01T03:44:04;26.55;;;11.70;;
51384;SDS011;37478;55.682;37.462;2023-04-01T03:46:29;27.02;;;11.70;;
51384;SDS011;37478;55.682;37.462;2023-04-01T03:48:55;27.80;;;12.35;;
51384;SDS011;37478;55.682;37.462;2023-04-01T03:51:20;21.52;;;10.93;;
51384;SDS011;37478;55.682;37.462;2023-04-01T03:53:45;22.80;;;11.15;;
51384;SDS011;37478;55.682;37.462;2023-04-01T03:56:10;23.92;;;11.95;;
51384;SDS011;37478;55.682;37.462;2023-04-01T03:58:36;21.65;;;10.65;;
51384;SDS011;37478;55.682;37.462;2023-04-01T04:01:01;27.67;;;10.85;;
51384;SDS011;37478;55.682;37.462;2023-04-01T04:03:27;27.70;;;11.88;;
51384;SDS011;37478;55.682;37.462;2023-04-01T04:05:53;25.95;;;11.40;;
51384;SDS011;37478;55.682;37.462;2023-04-01T04:08:18;19.00;;;10.05;;
51384;SDS011;37478;55.682;37.462;2023-04-01T04:10:43;22.63;;;10.32;;
51384;SDS011;37478;55.682;37.462;2023-04-01T04:13:09;25.15;;;11.63;;
51384;SDS011;37478;55.682;37.462;2023-04-01T04:15:34;23.45;;;11.45;;
51384;SDS011;37478;55.682;37.462;2023-04-01T04:18:00;21.40;;;10.55;;
51384;SDS011;37478;55.682;37.462;2023-04-01T04:20:25;22.00;;;10.90;;
51384;SDS011;37478;55.682;37.462;2023-04-01T04:22:50;21.27;;;11.50;;
51384;SDS011;37478;55.682;37.462;2023-04-01T04:25:16;21.60;;;11.05;;
51384;SDS011;37478;55.682;37.462;2023-04-01T04:27:41;24.17;;;10.75;;
51384;SDS011;37478;55.682;37.462;2023-04-01T04:30:07;20.88;;;11.25;;
51384;SDS011;37478;55.682;37.462;2023-04-01T04:32:33;26.35;;;11.27;;
51384;SDS011;37478;55.682;37.462;2023-04-01T04:34:58;21.52;;;10.95;;
51384;SDS011;37478;55.682;37.462;2023-04-01T04:37:23;28.08;;;11.45;;
51384;SDS011;37478;55.682;37.462;2023-04-01T04:39:50;24.38;;;10.77;;
51384;SDS011;37478;55.682;37.462;2023-04-01T04:42:16;26.80;;;12.18;;
51384;SDS011;37478;55.682;37.462;2023-04-01T04:44:41;28.05;;;12.52;;
51384;SDS011;37478;55.682;37.462;2023-04-01T04:47:06;19.98;;;10.35;;
51384;SDS011;37478;55.682;37.462;2023-04-01T04:49:31;26.42;;;12.07;;
51384;SDS011;37478;55.682;37.462;2023-04-01T04:51:57;23.38;;;11.70;;
51384;SDS011;37478;55.682;37.462;2023-04-01T04:54:22;24.42;;;11.52;;
51384;SDS011;37478;55.682;37.462;2023-04-01T04:56:47;21.42;;;11.07;;
51384;SDS011;37478;55.682;37.462;2023-04-01T04:59:12;22.63;;;10.80;;
51384;SDS011;37478;55.682;37.462;2023-04-01T05:01:38;25.27;;;12.57;;
51384;SDS011;37478;55.682;37.462;2023-04-01T05:04:03;24.83;;;12.52;;
51384;SDS011;37478;55.682;37.462;2023-04-01T05:06:28;24.85;;;11.35;;
51384;SDS011;37478;55.682;37.462;2023-04-01T05:08:57;26.42;;;12.57;;
51384;SDS011;37478;55.682;37.462;2023-04-01T05:11:22;24.75;;;11.15;;
51384;SDS011;37478;55.682;37.462;2023-04-01T05:13:48;25.83;;;12.90;;
51384;SDS011;37478;55.682;37.462;2023-04-01T05:16:18;26.35;;;10.77;;
51384;SDS011;37478;55.682;37.462;2023-04-01T05:18:44;24.90;;;12.15;;
51384;SDS011;37478;55.682;37.462;2023-04-01T05:21:10;25.63;;;12.32;;
51384;SDS011;37478;55.682;37.462;2023-04-01T05:23:35;23.48;;;12.35;;
51384;SDS011;37478;55.682;37.462;2023-04-01T05:26:05;22.40;;;11.68;;
51384;SDS011;37478;55.682;37.462;2023-04-01T05:28:30;24.23;;;12.07;;
51384;SDS011;37478;55.682;37.462;2023-04-01T05:30:57;22.75;;;11.57;;
51384;SDS011;37478;55.682;37.462;2023-04-01T05:33:23;25.02;;;11.48;;
51384;SDS011;37478;55.682;37.462;2023-04-01T05:35:48;28.33;;;13.23;;
51384;SDS011;37478;55.682;37.462;2023-04-01T05:38:13;22.73;;;10.52;;
51384;SDS011;37478;55.682;37.462;2023-04-01T05:40:39;24.58;;;13.15;;
51384;SDS011;37478;55.682;37.462;2023-04-01T05:43:05;27.88;;;12.73;;
51384;SDS011;37478;55.682;37.462;2023-04-01T05:45:30;20.73;;;11.80;;
51384;SDS011;37478;55.682;37.462;2023-04-01T05:47:55;22.80;;;11.45;;
51384;SDS011;37478;55.682;37.462;2023-04-01T05:50:20;25.67;;;12.57;;
51384;SDS011;37478;55.682;37.462;2023-04-01T05:52:46;29.35;;;12.57;;
51384;SDS011;37478;55.682;37.462;2023-04-01T05:55:11;21.10;;;12.00;;
51384;SDS011;37478;55.682;37.462;2023-04-01T05:57:36;25.90;;;12.23;;
51384;SDS011;37478;55.682;37.462;2023-04-01T06:00:02;28.42;;;12.32;;
51384;SDS011;37478;55.682;37.462;2023-04-01T06:02:28;27.73;;;12.23;;
51384;SDS011;37478;55.682;37.462;2023-04-01T06:04:54;29.38;;;11.88;;
51384;SDS011;37478;55.682;37.462;2023-04-01T06:07:24;34.80;;;13.10;;
51384;SDS011;37478;55.682;37.462;2023-04-01T06:09:49;24.27;;;12.07;;
51384;SDS011;37478;55.682;37.462;2023-04-01T06:22:56;29.73;;;12.40;;
51384;SDS011;37478;55.682;37.462;2023-04-01T06:27:58;30.80;;;13.27;;
51384;SDS011;37478;55.682;37.462;2023-04-01T06:45:44;25.40;;;12.02;;
51384;SDS011;37478;55.682;37.462;2023-04-01T06:53:47;27.02;;;12.75;;
51384;SDS011;37478;55.682;37.462;2023-04-01T06:56:17;30.65;;;13.30;;
51384;SDS011;37478;55.682;37.462;2023-04-01T07:01:10;22.45;;;10.40;;
51384;SDS011;37478;55.682;37.462;2023-04-01T07:04:00;24.77;;;10.73;;
51384;SDS011;37478;55.682;37.462;2023-04-01T07:06:28;24.73;;;10.50;;
51384;SDS011;37478;55.682;37.462;2023-04-01T07:08:55;20.88;;;10.02;;
51384;SDS011;37478;55.682;37.462;2023-04-01T07:11:32;21.33;;;10.80;;
51384;SDS011;37478;55.682;37.462;2023-04-01T07:14:19;22.13;;;11.43;;
51384;SDS011;37478;55.682;37.462;2023-04-01T07:16:58;24.35;;;11.60;;
51384;SDS011;37478;55.682;37.462;2023-04-01T07:19:36;22.30;;;10.75;;
51384;SDS011;37478;55.682;37.462;2023-04-01T07:22:26;20.63;;;11.00;;
51384;SDS011;37478;55.682;37.462;2023-04-01T07:24:53;24.08;;;11.98;;
51384;SDS011;37478;55.682;37.462;2023-04-01T07:27:19;20.90;;;10.38;;
51384;SDS011;37478;55.682;37.462;2023-04-01T07:29:44;26.30;;;12.57;;
51384;SDS011;37478;55.682;37.462;2023-04-01T07:32:20;23.80;;;11.48;;
51384;SDS011;37478;55.682;37.462;2023-04-01T07:43:17;19.25;;;10.25;;
51384;SDS011;37478;55.682;37.462;2023-04-01T07:45:39;16.13;;;9.03;;
51384;SDS011;37478;55.682;37.462;2023-04-01T07:53:08;16.15;;;9.13;;
51384;SDS011;37478;55.682;37.462;2023-04-01T07:55:42;16.65;;;9.40;;
51384;SDS011;37478;55.682;37.462;2023-04-01T08:00:56;20.55;;;9.50;;
51384;SDS011;37478;55.682;37.462;2023-04-01T08:11:25;22.02;;;8.77;;
51384;SDS011;37478;55.682;37.462;2023-04-01T08:20:07;18.92;;;9.05;;
51384;SDS011;37478;55.682;37.462;2023-04-01T08:22:10;25.20;;;12.05;;
51384;SDS011;37478;55.682;37.462;2023-04-01T08:24:42;21.45;;;11.70;;
51384;SDS011;37478;55.682;37.462;2023-04-01T08:27:11;22.17;;;10.68;;
51384;SDS011;37478;55.682;37.462;2023-04-01T08:29:42;22.63;;;11.25;;
51384;SDS011;37478;55.682;37.462;2023-04-01T08:32:15;25.63;;;11.80;;
51384;SDS011;37478;55.682;37.462;2023-04-01T08:34:43;22.48;;;13.27;;
51384;SDS011;37478;55.682;37.462;2023-04-01T08:37:14;27.58;;;12.02;;
51384;SDS011;37478;55.682;37.462;2023-04-01T08:39:50;25.98;;;12.52;;
51384;SDS011;37478;55.682;37.462;2023-04-01T08:42:35;23.67;;;11.68;;
51384;SDS011;37478;55.682;37.462;2023-04-01T08:50:42;17.23;;;9.63;;
51384;SDS011;37478;55.682;37.462;2023-04-01T09:16:06;17.25;;;8.57;;
51384;SDS011;37478;55.682;37.462;2023-04-01T09:29:05;18.67;;;8.60;;
51384;SDS011;37478;55.682;37.462;2023-04-01T09:31:48;17.35;;;9.10;;
51384;SDS011;37478;55.682;37.462;2023-04-01T09:44:42;12.38;;;7.60;;
51384;SDS011;37478;55.682;37.462;2023-04-01T10:02:27;11.63;;;5.47;;
51384;SDS011;37478;55.682;37.462;2023-04-01T10:55:24;9.73;;;4.80;;
51384;SDS011;37478;55.682;37.462;2023-04-01T11:26:28;8.48;;;4.30;;
51384;SDS011;37478;55.682;37.462;2023-04-01T11:29:03;11.25;;;5.88;;
51384;SDS011;37478;55.682;37.462;2023-04-01T11:39:56;8.73;;;5.10;;
51384;SDS011;37478;55.682;37.462;2023-04-01T11:45:19;8.52;;;5.40;;
51384;SDS011;37478;55.682;37.462;2023-04-01T11:50:38;10.20;;;4.68;;
51384;SDS011;37478;55.682;37.462;2023-04-01T11:53:26;12.02;;;5.00;;
51384;SDS011;37478;55.682;37.462;2023-04-01T11:55:56;15.50;;;6.63;;
51384;SDS011;37478;55.682;37.462;2023-04-01T12:03:50;9.27;;;3.88;;
51384;SDS011;37478;55.682;37.462;2023-04-01T12:06:20;9.48;;;5.35;;
51384;SDS011;37478;55.682;37.462;2023-04-01T12:08:51;6.30;;;3.70;;
51384;SDS011;37478;55.682;37.462;2023-04-01T12:21:36;10.18;;;5.03;;
51384;SDS011;37478;55.682;37.462;2023-04-01T12:29:12;5.63;;;3.90;;
51384;SDS011;37478;55.682;37.462;2023-04-01T12:31:47;7.15;;;4.07;;
51384;SDS011;37478;55.682;37.462;2023-04-01T12:39:37;7.88;;;4.75;;
51384;SDS011;37478;55.682;37.462;2023-04-01T12:52:22;11.18;;;5.30;;
51384;SDS011;37478;55.682;37.462;2023-04-01T13:08:11;15.30;;;6.47;;
51384;SDS011;37478;55.682;37.462;2023-04-01T13:18:09;12.85;;;5.78;;
51384;SDS011;37478;55.682;37.462;2023-04-01T13:28:20;10.13;;;5.03;;
51384;SDS011;37478;55.682;37.462;2023-04-01T13:31:03;11.15;;;5.32;;
51384;SDS011;37478;55.682;37.462;2023-04-01T13:43:48;13.50;;;5.82;;
51384;SDS011;37478;55.682;37.462;2023-04-01T13:56:24;10.32;;;6.00;;
51384;SDS011;37478;55.682;37.462;2023-04-01T14:01:26;17.20;;;6.75;;
51384;SDS011;37478;55.682;37.462;2023-04-01T14:07:00;11.75;;;6.68;;
51384;SDS011;37478;55.682;37.462;2023-04-01T14:12:29;13.00;;;7.32;;
51384;SDS011;37478;55.682;37.462;2023-04-01T14:15:09;12.10;;;7.72;;
51384;SDS011;37478;55.682;37.462;2023-04-01T14:27:45;18.63;;;7.45;;
51384;SDS011;37478;55.682;37.462;2023-04-01T14:30:35;15.07;;;6.85;;
51384;SDS011;37478;55.682;37.462;2023-04-01T14:38:04;15.30;;;7.57;;
51384;SDS011;37478;55.682;37.462;2023-04-01T14:41:15;14.63;;;7.13;;
51384;SDS011;37478;55.682;37.462;2023-04-01T14:43:42;12.68;;;7.00;;
51384;SDS011;37478;55.682;37.462;2023-04-01T14:46:23;10.45;;;6.97;;
51384;SDS011;37478;55.682;37.462;2023-04-01T14:49:13;13.85;;;6.68;;
51384;SDS011;37478;55.682;37.462;2023-04-01T14:51:40;19.60;;;9.93;;
51384;SDS011;37478;55.682;37.462;2023-04-01T14:56:41;12.70;;;7.20;;
51384;SDS011;37478;55.682;37.462;2023-04-01T15:06:45;17.95;;;8.55;;
51384;SDS011;37478;55.682;37.462;2023-04-01T15:27:15;17.40;;;8.68;;
51384;SDS011;37478;55.682;37.462;2023-04-01T15:32:36;18.65;;;9.27;;
51384;SDS011;37478;55.682;37.462;2023-04-01T15:37:42;17.13;;;7.88;;
51384;SDS011;37478;55.682;37.462;2023-04-01T15:40:18;15.35;;;8.75;;
51384;SDS011;37478;55.682;37.462;2023-04-01T15:58:16;16.13;;;8.63;;
51384;SDS011;37478;55.682;37.462;2023-04-01T16:00:51;18.23;;;8.43;;
51384;SDS011;37478;55.682;37.462;2023-04-01T16:08:46;15.70;;;8.15;;
51384;SDS011;37478;55.682;37.462;2023-04-01T16:11:21;14.38;;;8.05;;
51384;SDS011;37478;55.682;37.462;2023-04-01T16:21:45;16.10;;;8.85;;
51384;SDS011;37478;55.682;37.462;2023-04-01T16:26:57;17.08;;;8.50;;
51384;SDS011;37478;55.682;37.462;2023-04-01T16:34:54;14.07;;;7.65;;
51384;SDS011;37478;55.682;37.462;2023-04-01T16:50:28;15.07;;;9.18;;
51384;SDS011;37478;55.682;37.462;2023-04-01T16:52:59;15.80;;;9.27;;
51384;SDS011;37478;55.682;37.462;2023-04-01T16:58:10;16.77;;;10.00;;
51384;SDS011;37478;55.682;37.462;2023-04-01T17:00:40;21.10;;;10.23;;
51384;SDS011;37478;55.682;37.462;2023-04-01T17:10:57;16.52;;;9.68;;
51384;SDS011;37478;55.682;37.462;2023-04-01T17:13:30;20.00;;;10.10;;
51384;SDS011;37478;55.682;37.462;2023-04-01T17:18:27;13.82;;;8.07;;
51384;SDS011;37478;55.682;37.462;2023-04-01T17:20:57;12.88;;;9.02;;
51384;SDS011;37478;55.682;37.462;2023-04-01T17:36:04;19.42;;;9.68;;
51384;SDS011;37478;55.682;37.462;2023-04-01T17:51:33;21.17;;;8.60;;
51384;SDS011;37478;55.682;37.462;2023-04-01T17:59:44;17.67;;;10.27;;
51384;SDS011;37478;55.682;37.462;2023-04-01T18:02:25;16.67;;;9.68;;
51384;SDS011;37478;55.682;37.462;2023-04-01T18:17:24;22.83;;;10.15;;
51384;SDS011;37478;55.682;37.462;2023-04-01T18:22:23;15.27;;;8.55;;
51384;SDS011;37478;55.682;37.462;2023-04-01T18:27:38;18.35;;;9.95;;
51384;SDS011;37478;55.682;37.462;2023-04-01T18:30:11;17.20;;;10.20;;
51384;SDS011;37478;55.682;37.462;2023-04-01T18:32:43;19.13;;;9.98;;
51384;SDS011;37478;55.682;37.462;2023-04-01T18:40:30;17.00;;;9.73;;
51384;SDS011;37478;55.682;37.462;2023-04-01T18:43:00;18.27;;;9.85;;
51384;SDS011;37478;55.682;37.462;2023-04-01T18:45:28;20.67;;;9.80;;
51384;SDS011;37478;55.682;37.462;2023-04-01T18:50:47;17.95;;;10.27;;
51384;SDS011;37478;55.682;37.462;2023-04-01T18:55:42;17.67;;;9.93;;
51384;SDS011;37478;55.682;37.462;2023-04-01T19:06:23;23.35;;;11.57;;
51384;SDS011;37478;55.682;37.462;2023-04-01T19:08:49;17.77;;;9.45;;
51384;SDS011;37478;55.682;37.462;2023-04-01T19:11:22;17.17;;;10.15;;
51384;SDS011;37478;55.682;37.462;2023-04-01T19:21:19;19.95;;;10.88;;
51384;SDS011;37478;55.682;37.462;2023-04-01T19:24:03;20.13;;;10.70;;
51384;SDS011;37478;55.682;37.462;2023-04-01T19:29:10;18.33;;;11.23;;
51384;SDS011;37478;55.682;37.462;2023-04-01T19:34:14;17.65;;;10.95;;
51384;SDS011;37478;55.682;37.462;2023-04-01T19:41:53;19.33;;;11.35;;
51384;SDS011;37478;55.682;37.462;2023-04-01T19:44:24;19.85;;;11.38;;
51384;SDS011;37478;55.682;37.462;2023-04-01T19:54:31;20.92;;;11.48;;
51384;SDS011;37478;55.682;37.462;2023-04-01T20:14:50;23.23;;;11.88;;
51384;SDS011;37478;55.682;37.462;2023-04-01T20:20:00;22.35;;;10.98;;
51384;SDS011;37478;55.682;37.462;2023-04-01T20:22:37;23.70;;;11.52;;
51384;SDS011;37478;55.682;37.462;2023-04-01T20:25:15;23.55;;;11.55;;
51384;SDS011;37478;55.682;37.462;2023-04-01T20:27:44;22.75;;;12.02;;
51384;SDS011;37478;55.682;37.462;2023-04-01T20:32:59;20.52;;;11.73;;
51384;SDS011;37478;55.682;37.462;2023-04-01T20:38:02;21.33;;;10.63;;
51384;SDS011;37478;55.682;37.462;2023-04-01T20:40:34;24.25;;;11.65;;
51384;SDS011;37478;55.682;37.462;2023-04-01T20:50:58;18.33;;;11.65;;
51384;SDS011;37478;55.682;37.462;2023-04-01T20:53:41;20.95;;;12.63;;
51384;SDS011;37478;55.682;37.462;2023-04-01T20:58:43;18.27;;;11.68;;
51384;SDS011;37478;55.682;37.462;2023-04-01T21:04:22;21.83;;;11.30;;
51384;SDS011;37478;55.682;37.462;2023-04-01T21:09:17;23.48;;;11.45;;
51384;SDS011;37478;55.682;37.462;2023-04-01T21:50:38;23.45;;;12.77;;
51384;SDS011;37478;55.682;37.462;2023-04-01T21:58:32;20.60;;;12.30;;
51384;SDS011;37478;55.682;37.462;2023-04-01T22:14:09;24.17;;;12.90;;
51384;SDS011;37478;55.682;37.462;2023-04-01T22:29:12;25.40;;;12.68;;
51384;SDS011;37478;55.682;37.462;2023-04-01T22:31:53;21.95;;;13.48;;
51384;SDS011;37478;55.682;37.462;2023-04-01T22:45:20;29.02;;;13.38;;
51384;SDS011;37478;55.682;37.462;2023-04-01T22:50:08;28.15;;;13.48;;
51384;SDS011;37478;55.682;37.462;2023-04-01T22:52:40;25.83;;;15.05;;
51384;SDS011;37478;55.682;37.462;2023-04-01T22:55:13;29.08;;;14.98;;
51384;SDS011;37478;55.682;37.462;2023-04-01T23:03:04;29.17;;;14.80;;
51384;SDS011;37478;55.682;37.462;2023-04-01T23:05:31;27.20;;;14.43;;
51384;SDS011;37478;55.682;37.462;2023-04-01T23:10:30;32.05;;;16.00;;
51384;SDS011;37478;55.682;37.462;2023-04-01T23:12:59;36.40;;;17.73;;
51384;SDS011;37478;55.682;37.462;2023-04-01T23:15:26;32.75;;;18.23;;
51384;SDS011;37478;55.682;37.462;2023-04-01T23:27:56;30.25;;;15.10;;
51384;SDS011;37478;55.682;37.462;2023-04-01T23:35:46;34.10;;;15.80;;
51384;SDS011;37478;55.682;37.462;2023-04-01T23:38:11;31.88;;;16.13;;
51384;SDS011;37478;55.682;37.462;2023-04-01T23:40:37;35.97;;;17.58;;
51384;SDS011;37478;55.682;37.462;2023-04-01T23:43:02;37.58;;;16.20;;
51384;SDS011;37478;55.682;37.462;2023-04-01T23:45:37;43.97;;;17.23;;
51384;SDS011;37478;55.682;37.462;2023-04-01T23:48:02;35.50;;;16.45;;
51384;SDS011;37478;55.682;37.462;2023-04-01T23:50:28;31.60;;;16.10;;
51384;SDS011;37478;55.682;37.462;2023-04-01T23:55:23;45.70;;;19.00;;
51384;SDS011;37478;55.682;37.462;2023-04-01T23:58:06;36.15;;;16.80;;
